Portada
METAR-TAF:

METAR-TAF

Aeroports :

Indianàpolis, Indiana, Estats Units d'Amèrica

latitud: 39-43-30N, longitud: 086-16-55W, altitud: 243 m

Observació

L'informe es va fer fa 24 minuts, a les 07:54 UTC
Vent 4 kt del Nord/Nord-Est
Temperatura 16°C
Humitat 77%
Pressió 1023 hPa
Visibilitat: 16.1 km
Cel clar

METAR: KIND 240754Z 03004KT 10SM CLR 16/12 A3021 RMK AO2 SLP224 T01560122

Hora: 04:18 (08:18 UTC)

Pronòstic

L'informe es va fer fa 2 hores i 58 minuts, a les 05:20 UTC
Pronòstic vàlid del 24 a les 06 UTC al 25 a les 12 UTC
Vent 7 kt del Nord-Est
Visibilitat: 10 km
Escasses núvols a una alçada de 25000 ft
A partir de les 24 a les 1400 UTC
Vent 11 kt del Est/Nord-Est
Visibilitat: 10 km
Escasses núvols a una alçada de 3500 ft
Núvols disperses a una alçada de 15000 ft
A partir de les 25 a les 0200 UTC
Vent 5 kt del Est
Visibilitat: 10 km
Escasses núvols a una alçada de 25000 ft

TAF: KIND 240520Z 2406/2512 05007KT P6SM FEW250 FM241400 07011KT P6SM FEW035 SCT150 FM250200 08005KT P6SM FEW250

Observacions i pronòstics meteorològics de més de 4000 aeroports (METAR i TAF).

Les estacions disponibles són els punts grocs i vermells al mapa.

Posi el ratolí al punt desitjat per veure el nom de l'estació.

Feu clic per veure les observacions i els pronòstics meteorològics.

Per canviar el mapa: feu clic els botons verds amb una creu de color negre per apropar; al botó verd amb un guió per allunyar la imatge; o en les fletxes verdes per a mapes adjacents.


METAR-TAF: